createdAt,value
2017-04-14T00:00:48.835Z,6.38
2017-04-14T00:01:47.249Z,6.92
2017-04-14T00:02:45.720Z,6.50
2017-04-14T00:03:44.754Z,6.85
2017-04-14T00:04:43.089Z,6.45
2017-04-14T00:05:41.386Z,6.85
2017-04-14T00:06:39.894Z,6.85
2017-04-14T00:07:38.358Z,6.98
2017-04-14T00:08:36.797Z,6.43
2017-04-14T00:09:35.705Z,6.80
2017-04-14T00:10:34.089Z,7.02
2017-04-14T00:11:32.368Z,7.00
2017-04-14T00:12:30.822Z,6.37
2017-04-14T00:13:29.189Z,7.32
2017-04-14T00:14:27.624Z,5.95
2017-04-14T00:15:26.511Z,6.97
2017-04-14T00:16:25.379Z,6.40
2017-04-14T00:17:24.682Z,6.75
2017-04-14T00:18:22.976Z,7.22
2017-04-14T00:19:21.282Z,6.32
2017-04-14T00:20:20.460Z,6.93
2017-04-14T00:21:18.729Z,6.25
2017-04-14T00:22:17.016Z,7.22
2017-04-14T00:23:15.283Z,7.27
2017-04-14T00:24:13.800Z,7.95
2017-04-14T00:25:12.751Z,7.27
2017-04-14T00:26:11.055Z,7.08
2017-04-14T00:27:09.399Z,6.90
2017-04-14T00:28:07.729Z,7.28
2017-04-14T00:29:06.751Z,6.63
2017-04-14T00:30:05.064Z,6.67
2017-04-14T00:31:03.355Z,7.63
2017-04-14T00:32:02.370Z,6.50
2017-04-14T00:33:00.748Z,7.30
2017-04-14T00:33:59.515Z,7.70
2017-04-14T00:34:57.837Z,6.53
2017-04-14T00:35:57.625Z,7.05
2017-04-14T00:36:56.042Z,7.50
2017-04-14T00:37:54.332Z,6.23
2017-04-14T00:38:52.598Z,7.75
2017-04-14T00:39:50.863Z,7.55
2017-04-14T00:40:49.123Z,6.43
2017-04-14T00:41:47.554Z,7.30
2017-04-14T00:42:45.843Z,7.02
2017-04-14T00:43:44.215Z,7.33
2017-04-14T00:44:42.650Z,6.48
2017-04-14T00:45:40.972Z,7.35
2017-04-14T00:46:39.256Z,6.47
2017-04-14T00:47:37.681Z,6.92
2017-04-14T00:48:36.964Z,7.50
2017-04-14T00:49:35.209Z,6.77
2017-04-14T00:50:34.330Z,6.55
2017-04-14T00:51:32.633Z,6.40
2017-04-14T00:52:31.148Z,6.73
2017-04-14T00:53:30.151Z,6.93
2017-04-14T00:54:28.478Z,7.28
2017-04-14T00:55:26.837Z,7.27
2017-04-14T00:56:25.296Z,6.75
2017-04-14T00:57:23.567Z,6.85
2017-04-14T00:58:21.844Z,7.07
2017-04-14T00:59:20.830Z,7.00
2017-04-14T01:00:19.235Z,7.32
2017-04-14T01:01:17.509Z,7.45
2017-04-14T01:02:16.473Z,7.97
2017-04-14T01:03:14.863Z,6.77
2017-04-14T01:04:13.213Z,6.70
2017-04-14T01:05:11.557Z,7.25
2017-04-14T01:06:09.971Z,7.23
2017-04-14T01:07:08.325Z,8.57
2017-04-14T01:08:06.880Z,6.77
2017-04-14T01:09:05.235Z,7.27
2017-04-14T01:10:03.546Z,7.45
2017-04-14T01:11:01.794Z,7.15
2017-04-14T01:12:00.181Z,6.55
2017-04-14T01:12:58.443Z,7.33
2017-04-14T01:13:56.720Z,6.63
2017-04-14T01:14:54.977Z,7.27
2017-04-14T01:15:53.266Z,6.97
2017-04-14T01:16:51.571Z,7.93
2017-04-14T01:17:49.909Z,6.65
2017-04-14T01:18:48.202Z,7.23
2017-04-14T01:19:47.036Z,7.08
2017-04-14T01:20:45.527Z,7.45
2017-04-14T01:21:44.026Z,7.40
2017-04-14T01:22:42.867Z,7.25
2017-04-14T01:23:41.234Z,6.93
2017-04-14T01:24:40.204Z,8.78
2017-04-14T01:25:38.471Z,7.90
2017-04-14T01:26:36.843Z,7.47
2017-04-14T01:27:35.192Z,7.62
2017-04-14T01:28:34.253Z,6.87
2017-04-14T01:29:32.495Z,7.53
2017-04-14T01:30:30.886Z,7.73
2017-04-14T01:31:29.681Z,7.45
2017-04-14T01:32:28.020Z,7.23
2017-04-14T01:33:26.306Z,7.00
2017-04-14T01:34:24.575Z,7.93
2017-04-14T01:35:22.897Z,8.42
2017-04-14T01:36:21.179Z,9.25
2017-04-14T01:37:19.451Z,7.78
2017-04-14T01:38:17.694Z,7.98
2017-04-14T01:39:15.965Z,8.22
2017-04-14T01:40:14.297Z,7.63
2017-04-14T01:41:12.620Z,7.45
2017-04-14T01:42:11.496Z,7.45
2017-04-14T01:43:09.751Z,8.00
2017-04-14T01:44:08.136Z,7.17
2017-04-14T01:45:06.413Z,8.22
2017-04-14T01:46:05.422Z,7.48
2017-04-14T01:47:04.493Z,7.90
2017-04-14T01:48:02.880Z,7.00
2017-04-14T01:49:02.090Z,7.23
2017-04-14T01:50:00.410Z,7.97
2017-04-14T01:50:58.803Z,7.60
2017-04-14T01:51:57.121Z,7.73
2017-04-14T01:52:55.372Z,7.30
2017-04-14T01:53:53.599Z,7.67
2017-04-14T01:54:52.500Z,7.63
2017-04-14T01:55:50.820Z,7.03
2017-04-14T01:56:49.258Z,8.30
2017-04-14T01:57:47.538Z,7.87
2017-04-14T01:58:45.969Z,7.02
2017-04-14T01:59:44.490Z,7.50
2017-04-14T02:00:42.780Z,7.23
2017-04-14T02:01:41.079Z,7.75
2017-04-14T02:02:39.489Z,7.40
2017-04-14T02:03:37.707Z,8.02
2017-04-14T02:04:36.740Z,8.00
2017-04-14T02:05:35.441Z,7.45
2017-04-14T02:06:33.710Z,7.53
2017-04-14T02:07:32.273Z,8.30
2017-04-14T02:08:30.557Z,7.53
2017-04-14T02:09:29.709Z,7.65
2017-04-14T02:10:28.030Z,7.17
2017-04-14T02:11:26.373Z,8.07
2017-04-14T02:12:25.431Z,8.60
2017-04-14T02:13:23.654Z,7.60
2017-04-14T02:14:22.001Z,7.98
2017-04-14T02:15:20.343Z,7.77
2017-04-14T02:16:19.429Z,7.93
2017-04-14T02:17:17.723Z,7.62
2017-04-14T02:18:16.809Z,7.27
2017-04-14T02:19:15.160Z,7.95
2017-04-14T02:20:13.482Z,8.12
2017-04-14T02:21:11.711Z,8.32
2017-04-14T02:22:10.762Z,8.47
2017-04-14T02:23:10.136Z,7.82
2017-04-14T02:24:09.091Z,8.18
2017-04-14T02:25:08.426Z,8.32
2017-04-14T02:26:07.543Z,9.65
2017-04-14T02:27:07.223Z,7.65
2017-04-14T02:28:05.522Z,9.20
2017-04-14T02:29:03.887Z,8.03
2017-04-14T02:30:02.275Z,8.97
2017-04-14T02:31:00.526Z,8.38
2017-04-14T02:31:59.623Z,8.78
2017-04-14T02:32:59.327Z,8.38
2017-04-14T02:33:58.102Z,7.60
2017-04-14T02:34:56.759Z,8.15
2017-04-14T02:35:55.734Z,8.10
2017-04-14T02:36:54.048Z,8.18
2017-04-14T02:37:52.500Z,9.43
2017-04-14T02:38:50.767Z,8.70
2017-04-14T02:39:50.050Z,9.33
2017-04-14T02:40:48.285Z,7.95
2017-04-14T02:41:46.550Z,8.58
2017-04-14T02:42:44.895Z,9.38
2017-04-14T02:43:43.213Z,8.58
2017-04-14T02:44:42.173Z,8.22
2017-04-14T02:45:40.829Z,9.38
2017-04-14T02:46:39.268Z,9.08
2017-04-14T02:47:37.585Z,9.03
2017-04-14T02:48:36.062Z,8.70
2017-04-14T02:49:34.331Z,9.32
2017-04-14T02:50:32.677Z,9.23
2017-04-14T02:51:30.927Z,9.70
2017-04-14T02:52:29.545Z,8.22
2017-04-14T02:53:28.564Z,8.60
2017-04-14T02:54:26.799Z,9.60
2017-04-14T02:55:25.101Z,8.35
2017-04-14T02:56:24.272Z,8.90
2017-04-14T02:57:23.178Z,9.67
2017-04-14T02:58:21.553Z,10.40
2017-04-14T02:59:19.881Z,10.22
2017-04-14T03:00:18.830Z,10.00
2017-04-14T03:01:17.149Z,10.58
2017-04-14T03:02:15.416Z,10.65
2017-04-14T03:03:13.861Z,10.68
2017-04-14T03:04:12.883Z,11.07
2017-04-14T03:05:11.275Z,11.88
2017-04-14T03:06:09.579Z,11.55
2017-04-14T03:07:08.684Z,11.40
2017-04-14T03:08:06.953Z,12.63
2017-04-14T03:09:05.383Z,12.30
2017-04-14T03:10:03.710Z,11.67
2017-04-14T03:11:02.014Z,11.92
2017-04-14T03:12:00.350Z,13.20
2017-04-14T03:12:58.654Z,12.50
2017-04-14T03:13:57.095Z,15.52
2017-04-14T03:14:55.517Z,13.68
2017-04-14T03:15:53.920Z,13.80
2017-04-14T03:16:52.197Z,13.75
2017-04-14T03:17:50.557Z,14.30
2017-04-14T03:18:48.994Z,14.43
2017-04-14T03:19:47.352Z,13.93
2017-04-14T03:20:46.430Z,14.65
2017-04-14T03:21:44.761Z,12.63
2017-04-14T03:22:43.095Z,15.30
2017-04-14T03:23:41.355Z,14.37
2017-04-14T03:24:39.665Z,14.08
2017-04-14T03:25:38.027Z,14.15
2017-04-14T03:26:36.348Z,15.05
2017-04-14T03:27:34.831Z,13.82
2017-04-14T03:28:33.113Z,14.97
2017-04-14T03:29:31.483Z,15.23
2017-04-14T03:30:29.996Z,14.48
2017-04-14T03:31:28.947Z,14.42
2017-04-14T03:32:27.219Z,14.30
2017-04-14T03:33:25.579Z,14.75
2017-04-14T03:34:23.851Z,13.75
2017-04-14T03:35:22.142Z,13.80
2017-04-14T03:36:20.520Z,15.35
2017-04-14T03:37:18.813Z,14.45
2017-04-14T03:38:17.134Z,14.40
2017-04-14T03:39:15.372Z,16.40
2017-04-14T03:40:13.639Z,15.48
2017-04-14T03:41:11.927Z,17.20
2017-04-14T03:42:10.202Z,17.10
2017-04-14T03:43:08.524Z,16.03
2017-04-14T03:44:06.916Z,16.65
2017-04-14T03:45:05.237Z,16.33
2017-04-14T03:46:03.549Z,17.12
2017-04-14T03:47:01.855Z,17.47
2017-04-14T03:48:00.655Z,16.42
2017-04-14T03:48:59.746Z,16.55
2017-04-14T03:49:58.850Z,17.87
2017-04-14T03:50:57.179Z,16.68
2017-04-14T03:51:56.303Z,16.63
2017-04-14T03:52:54.802Z,14.65
2017-04-14T03:53:53.248Z,15.80
2017-04-14T03:54:51.560Z,15.80
2017-04-14T03:55:49.978Z,16.32
2017-04-14T03:56:48.312Z,16.18
2017-04-14T03:57:46.589Z,15.85
2017-04-14T03:58:44.971Z,17.30
2017-04-14T03:59:44.576Z,16.72
2017-04-14T04:00:42.851Z,18.00
2017-04-14T04:01:41.112Z,18.68
2017-04-14T04:02:39.443Z,17.23
2017-04-14T04:03:37.811Z,19.67
2017-04-14T04:04:36.063Z,16.18
2017-04-14T04:05:34.345Z,16.40
2017-04-14T04:06:32.714Z,16.70
2017-04-14T04:07:31.026Z,18.15
2017-04-14T04:08:29.343Z,17.72
2017-04-14T04:09:27.637Z,16.42
2017-04-14T04:10:26.721Z,18.18
2017-04-14T04:11:25.011Z,19.17
2017-04-14T04:12:23.296Z,17.42
2017-04-14T04:13:21.664Z,18.32
2017-04-14T04:14:21.148Z,18.22
2017-04-14T04:15:20.191Z,16.70
2017-04-14T04:16:18.912Z,18.58
2017-04-14T04:17:17.275Z,17.33
2017-04-14T04:18:15.641Z,19.62
2017-04-14T04:19:14.106Z,18.80
2017-04-14T04:20:12.343Z,20.90
2017-04-14T04:21:11.123Z,19.63
2017-04-14T04:22:09.524Z,20.22
2017-04-14T04:23:08.378Z,17.63
2017-04-14T04:24:07.519Z,17.53
2017-04-14T04:25:05.877Z,19.13
2017-04-14T04:26:05.212Z,19.83
2017-04-14T04:27:03.610Z,19.08
2017-04-14T04:28:02.016Z,18.20
2017-04-14T04:29:00.469Z,17.83
2017-04-14T04:29:58.751Z,17.18
2017-04-14T04:30:57.648Z,19.02
2017-04-14T04:33:00.417Z,18.33
2017-04-14T04:34:04.274Z,16.80
2017-04-14T04:35:03.311Z,17.98
2017-04-14T04:36:01.739Z,16.90
2017-04-14T04:37:00.123Z,16.60
2017-04-14T04:37:58.435Z,16.50
2017-04-14T04:38:56.737Z,17.35
2017-04-14T04:39:55.024Z,17.30
2017-04-14T04:40:53.316Z,16.58
2017-04-14T04:41:52.317Z,17.65
2017-04-14T04:42:51.408Z,17.83
2017-04-14T04:43:50.967Z,16.73
2017-04-14T04:44:49.500Z,17.13
2017-04-14T04:45:47.848Z,16.40
2017-04-14T04:46:46.119Z,16.10
2017-04-14T04:47:44.486Z,16.30
2017-04-14T04:48:42.713Z,18.08
2017-04-14T04:49:41.063Z,16.57
2017-04-14T04:50:39.336Z,16.38
2017-04-14T04:51:37.568Z,16.93
2017-04-14T04:52:36.654Z,15.92
2017-04-14T04:53:35.669Z,17.15
2017-04-14T04:54:34.630Z,16.65
2017-04-14T04:55:33.117Z,16.50
2017-04-14T04:56:31.479Z,15.87
2017-04-14T04:57:29.874Z,17.00
2017-04-14T04:58:28.395Z,16.85
2017-04-14T04:59:26.715Z,16.28
2017-04-14T05:00:25.347Z,18.22
2017-04-14T05:01:24.390Z,16.40
2017-04-14T05:02:22.775Z,17.55
2017-04-14T05:03:21.012Z,17.70
2017-04-14T05:04:19.538Z,15.47
2017-04-14T05:05:17.900Z,16.23
2017-04-14T05:06:17.004Z,15.28
2017-04-14T05:07:15.344Z,18.32
2017-04-14T05:08:14.199Z,16.98
2017-04-14T05:09:12.552Z,16.15
2017-04-14T05:10:12.182Z,15.82
2017-04-14T05:11:10.736Z,16.60
2017-04-14T05:12:08.987Z,15.72
2017-04-14T05:13:07.453Z,18.13
2017-04-14T05:14:05.781Z,18.75
2017-04-14T05:15:04.755Z,16.25
2017-04-14T05:16:03.591Z,17.87
2017-04-14T05:17:01.947Z,16.40
2017-04-14T05:18:00.359Z,16.60
2017-04-14T05:18:58.709Z,15.30
2017-04-14T05:19:57.673Z,15.02
2017-04-14T05:20:56.060Z,17.08
2017-04-14T05:21:54.298Z,15.85
2017-04-14T05:22:52.701Z,16.47
2017-04-14T05:23:51.196Z,17.65
2017-04-14T05:24:49.473Z,17.02
2017-04-14T05:25:48.582Z,18.18
2017-04-14T05:26:47.573Z,17.48
2017-04-14T05:27:45.868Z,18.12
2017-04-14T05:28:44.155Z,19.25
2017-04-14T05:29:42.550Z,19.63
2017-04-14T05:30:40.935Z,19.13
2017-04-14T05:31:39.732Z,20.45
2017-04-14T05:32:37.996Z,20.58
2017-04-14T05:33:36.245Z,18.98
2017-04-14T05:34:34.568Z,19.60
2017-04-14T05:35:32.960Z,18.10
2017-04-14T05:36:31.922Z,19.12
2017-04-14T05:37:30.389Z,17.38
2017-04-14T05:38:28.761Z,18.47
2017-04-14T05:39:27.250Z,20.42
2017-04-14T05:40:25.681Z,20.90
2017-04-14T05:41:25.052Z,19.57
2017-04-14T05:42:23.375Z,19.18
2017-04-14T05:43:21.741Z,18.88
2017-04-14T05:44:20.140Z,19.85
2017-04-14T05:45:18.413Z,19.38
2017-04-14T05:46:16.720Z,19.68
2017-04-14T05:47:15.061Z,19.75
2017-04-14T05:48:13.560Z,19.10
2017-04-14T05:49:12.357Z,19.65
2017-04-14T05:50:10.714Z,19.82
2017-04-14T05:51:09.090Z,18.15
2017-04-14T05:52:07.430Z,18.48
2017-04-14T05:53:05.710Z,21.00
2017-04-14T05:54:03.974Z,21.33
2017-04-14T05:55:02.269Z,18.42
2017-04-14T05:56:00.556Z,18.60
2017-04-14T05:56:59.592Z,18.37
2017-04-14T05:57:58.503Z,18.32
2017-04-14T05:58:57.537Z,19.83
2017-04-14T05:59:55.807Z,12.77
2017-04-14T06:00:54.165Z,8.68
2017-04-14T06:01:52.479Z,15.67
2017-04-14T06:02:50.792Z,13.98
2017-04-14T06:03:49.307Z,13.65
2017-04-14T06:04:47.790Z,11.13
2017-04-14T06:05:46.103Z,11.30
2017-04-14T06:06:44.449Z,12.13
2017-04-14T06:07:42.731Z,15.08
2017-04-14T06:08:41.115Z,15.38
2017-04-14T06:09:39.481Z,14.42
2017-04-14T06:10:37.991Z,16.20
2017-04-14T06:11:39.554Z,16.13
2017-04-14T06:12:38.937Z,15.57
2017-04-14T06:13:37.608Z,15.50
2017-04-14T06:14:35.876Z,16.62
2017-04-14T06:15:34.436Z,16.08
2017-04-14T06:16:32.886Z,17.75
2017-04-14T06:17:31.341Z,17.30
2017-04-14T06:18:29.631Z,17.78
2017-04-14T06:19:28.094Z,17.63
2017-04-14T06:20:26.423Z,18.40
2017-04-14T06:21:25.471Z,15.80
2017-04-14T06:22:23.753Z,14.83
2017-04-14T06:23:22.147Z,16.67
2017-04-14T06:24:21.271Z,18.40
2017-04-14T06:25:19.664Z,17.80
2017-04-14T06:26:18.509Z,16.70
2017-04-14T06:27:16.876Z,18.00
2017-04-14T06:28:15.132Z,17.28
2017-04-14T06:29:13.408Z,17.65
2017-04-14T06:30:11.784Z,18.00
2017-04-14T06:31:11.316Z,18.97
2017-04-14T06:32:09.957Z,19.40
2017-04-14T06:33:08.419Z,21.00
2017-04-14T06:34:06.732Z,16.68
2017-04-14T06:35:05.051Z,15.96
2017-04-14T06:36:03.430Z,17.13
2017-04-14T06:37:01.952Z,17.83
2017-04-14T06:38:00.213Z,17.80
2017-04-14T06:38:58.564Z,17.40
2017-04-14T06:39:56.852Z,16.24
2017-04-14T06:40:55.563Z,16.81
2017-04-14T06:41:54.589Z,17.20
2017-04-14T06:42:52.973Z,16.60
2017-04-14T06:43:51.381Z,18.67
2017-04-14T06:44:49.696Z,17.64
2017-04-14T06:45:47.962Z,17.73
2017-04-14T06:46:46.255Z,17.01
2017-04-14T06:47:44.572Z,17.43
2017-04-14T06:48:42.892Z,16.47
2017-04-14T06:49:41.850Z,15.66
2017-04-14T06:50:40.151Z,15.14
2017-04-14T06:51:38.433Z,14.53
2017-04-14T06:52:36.821Z,15.76
2017-04-14T06:53:35.305Z,14.36
2017-04-14T06:54:34.243Z,13.67
2017-04-14T06:55:33.340Z,13.16
2017-04-14T06:56:31.592Z,11.77
2017-04-14T06:57:30.630Z,14.47
2017-04-14T06:58:29.011Z,12.27
2017-04-14T06:59:27.363Z,12.86
2017-04-14T07:00:25.740Z,12.84
2017-04-14T07:01:24.063Z,12.06
2017-04-14T07:02:23.130Z,11.21
2017-04-14T07:03:22.139Z,11.70
2017-04-14T07:04:20.840Z,11.44
2017-04-14T07:05:19.201Z,10.64
2017-04-14T07:06:18.379Z,11.61
2017-04-14T07:07:16.810Z,11.97
2017-04-14T07:08:15.059Z,11.57
2017-04-14T07:09:13.367Z,11.83
2017-04-14T07:10:13.804Z,11.43
2017-04-14T07:11:12.161Z,10.83
2017-04-14T07:12:10.663Z,11.30
2017-04-14T07:13:08.935Z,11.97
2017-04-14T07:14:07.262Z,12.53
2017-04-14T07:15:05.555Z,12.16
2017-04-14T07:16:03.881Z,11.51
2017-04-14T07:17:02.982Z,13.60
2017-04-14T07:18:01.267Z,12.89
2017-04-14T07:18:59.566Z,12.40
2017-04-14T07:19:57.791Z,12.00
2017-04-14T07:20:56.408Z,12.17
2017-04-14T07:21:54.799Z,12.77
2017-04-14T07:22:53.776Z,13.01
2017-04-14T07:23:52.208Z,12.67
2017-04-14T07:24:50.764Z,12.44
2017-04-14T07:25:49.296Z,13.77
2017-04-14T07:26:47.894Z,14.31
2017-04-14T07:27:46.202Z,12.27
2017-04-14T07:28:44.617Z,13.99
2017-04-14T07:29:42.911Z,13.17
2017-04-14T07:30:41.186Z,13.94
2017-04-14T07:31:39.591Z,12.67
2017-04-14T07:32:37.875Z,13.97
2017-04-14T07:33:36.281Z,14.37
2017-04-14T07:34:34.700Z,13.09
2017-04-14T07:35:33.522Z,13.10
2017-04-14T07:36:32.566Z,13.09
2017-04-14T07:37:30.920Z,12.97
2017-04-14T07:38:29.245Z,12.43
2017-04-14T07:39:28.416Z,12.87
2017-04-14T07:40:26.821Z,13.24
2017-04-14T07:41:25.286Z,11.39
2017-04-14T07:42:24.395Z,12.19
2017-04-14T07:43:22.746Z,10.50
2017-04-14T07:44:21.666Z,12.81
2017-04-14T07:45:20.695Z,10.86
2017-04-14T07:46:19.721Z,12.00
2017-04-14T07:47:18.659Z,11.23
2017-04-14T07:48:17.206Z,10.77
2017-04-14T07:49:16.120Z,10.43
2017-04-14T07:50:14.412Z,9.99
2017-04-14T07:51:12.711Z,9.23
2017-04-14T07:52:11.136Z,8.23
2017-04-14T07:53:10.093Z,8.94
2017-04-14T07:54:09.226Z,8.90
2017-04-14T07:55:07.674Z,9.10
2017-04-14T07:56:06.028Z,8.09
2017-04-14T07:57:04.395Z,8.59
2017-04-14T07:58:02.844Z,8.40
2017-04-14T07:59:01.151Z,8.01
2017-04-14T07:59:59.552Z,8.64
2017-04-14T08:00:57.815Z,8.87
2017-04-14T08:01:56.082Z,8.56
2017-04-14T08:02:54.345Z,8.44
2017-04-14T08:03:52.729Z,7.76
2017-04-14T08:04:50.995Z,8.60
2017-04-14T08:05:50.113Z,8.74
2017-04-14T08:06:49.223Z,7.91
2017-04-14T08:07:47.462Z,7.30
2017-04-14T08:08:45.771Z,9.24
2017-04-14T08:09:44.540Z,7.47
2017-04-14T08:10:42.809Z,8.19
2017-04-14T08:11:41.236Z,8.40
2017-04-14T08:12:39.502Z,7.37
2017-04-14T08:13:37.784Z,7.37
2017-04-14T08:14:36.911Z,7.37
2017-04-14T08:15:35.228Z,7.51
2017-04-14T08:16:33.520Z,8.67
2017-04-14T08:17:32.035Z,9.37
2017-04-14T08:18:30.385Z,7.41
2017-04-14T08:19:28.779Z,8.96
2017-04-14T08:20:27.079Z,7.64
2017-04-14T08:21:26.127Z,8.91
2017-04-14T08:22:24.655Z,7.93
2017-04-14T08:23:23.582Z,8.80
2017-04-14T08:24:21.842Z,7.87
2017-04-14T08:25:20.286Z,7.30
2017-04-14T08:26:18.569Z,7.16
2017-04-14T08:27:16.836Z,7.67
2017-04-14T08:28:15.064Z,6.30
2017-04-14T08:29:13.310Z,6.60
2017-04-14T08:30:11.601Z,6.77
2017-04-14T08:31:09.913Z,6.44
2017-04-14T08:32:08.500Z,7.41
2017-04-14T08:33:07.560Z,7.67
2017-04-14T08:34:06.366Z,7.11
2017-04-14T08:35:04.644Z,6.76
2017-04-14T08:36:03.093Z,6.63
2017-04-14T08:37:01.427Z,7.56
2017-04-14T08:37:59.786Z,7.30
2017-04-14T08:38:58.188Z,7.77
2017-04-14T08:39:56.453Z,7.44
2017-04-14T08:40:54.755Z,7.74
2017-04-14T08:41:53.499Z,7.77
2017-04-14T08:42:51.774Z,8.41
2017-04-14T08:43:50.091Z,7.96
2017-04-14T08:44:47.777Z,9.26
2017-04-14T08:45:46.042Z,8.63
2017-04-14T08:46:44.302Z,7.76
2017-04-14T08:47:42.551Z,8.10
2017-04-14T08:48:40.830Z,8.51
2017-04-14T08:49:39.370Z,8.10
2017-04-14T08:50:38.420Z,8.00
2017-04-14T08:51:38.631Z,7.16
2017-04-14T08:52:36.921Z,6.93
2017-04-14T08:53:35.939Z,7.46
2017-04-14T08:54:34.444Z,8.31
2017-04-14T08:55:32.841Z,7.91
2017-04-14T08:56:31.082Z,7.27
2017-04-14T08:57:29.355Z,6.49
2017-04-14T08:58:27.655Z,6.99
2017-04-14T08:59:26.875Z,7.84
2017-04-14T09:00:25.215Z,7.44
2017-04-14T09:01:23.579Z,7.61
2017-04-14T09:02:21.922Z,6.03
2017-04-14T09:03:20.433Z,5.59
2017-04-14T09:04:19.338Z,5.93
2017-04-14T09:05:18.792Z,5.89
2017-04-14T09:06:18.209Z,6.70
2017-04-14T09:07:17.440Z,5.74
2017-04-14T09:08:16.235Z,5.66
2017-04-14T09:09:14.612Z,5.97
2017-04-14T09:10:12.878Z,6.34
2017-04-14T09:11:12.013Z,6.34
2017-04-14T09:12:10.338Z,7.41
2017-04-14T09:13:08.652Z,6.69
2017-04-14T09:14:06.932Z,6.46
2017-04-14T09:15:05.221Z,8.21
2017-04-14T09:16:04.213Z,7.83
2017-04-14T09:17:02.680Z,6.29
2017-04-14T09:18:00.979Z,6.56
2017-04-14T09:19:00.036Z,6.23
2017-04-14T09:19:58.411Z,6.19
2017-04-14T09:20:56.722Z,6.13
2017-04-14T09:21:55.102Z,6.19
2017-04-14T09:22:53.469Z,5.06
2017-04-14T09:23:52.608Z,4.84
2017-04-14T09:24:50.875Z,5.34
2017-04-14T09:25:49.211Z,6.36
2017-04-14T09:26:47.640Z,5.37
2017-04-14T09:27:46.055Z,7.01
2017-04-14T09:28:44.299Z,5.49
2017-04-14T09:29:42.564Z,6.30
2017-04-14T09:30:40.828Z,6.69
2017-04-14T09:31:39.320Z,7.13
2017-04-14T09:32:38.260Z,7.49
2017-04-14T09:33:36.636Z,7.50
2017-04-14T09:34:34.923Z,6.86
2017-04-14T09:35:33.164Z,7.00
2017-04-14T09:36:31.528Z,7.10
2017-04-14T09:37:29.838Z,6.37
2017-04-14T09:38:28.980Z,7.94
2017-04-14T09:39:27.241Z,6.64
2017-04-14T09:40:25.563Z,5.24
2017-04-14T09:41:23.870Z,5.09
2017-04-14T09:42:22.920Z,5.69
2017-04-14T09:43:21.156Z,7.31
2017-04-14T09:44:19.628Z,6.34
2017-04-14T09:45:17.883Z,5.37
2017-04-14T09:46:16.140Z,5.03
2017-04-14T09:47:14.639Z,5.89
2017-04-14T09:48:16.728Z,5.07
2017-04-14T09:49:17.174Z,4.44
2017-04-14T09:50:16.209Z,5.91
2017-04-14T09:51:14.545Z,5.53
2017-04-14T09:52:13.427Z,7.59
2017-04-14T09:53:11.841Z,7.70
2017-04-14T09:54:10.305Z,6.79
2017-04-14T09:55:08.584Z,8.06
2017-04-14T09:56:06.939Z,6.50
2017-04-14T09:57:05.234Z,7.49
2017-04-14T09:58:03.558Z,5.37
2017-04-14T09:59:01.903Z,4.94
2017-04-14T10:00:00.179Z,5.73
2017-04-14T10:00:58.588Z,6.04
2017-04-14T10:01:56.895Z,6.00
2017-04-14T10:02:55.920Z,6.27
2017-04-14T10:03:55.583Z,6.26
2017-04-14T10:04:54.595Z,6.53
2017-04-14T10:05:53.018Z,6.09
2017-04-14T10:06:52.064Z,6.86
2017-04-14T10:07:50.347Z,6.10
2017-04-14T10:08:48.739Z,7.51
2017-04-14T10:09:47.790Z,8.46
2017-04-14T10:10:46.043Z,8.44
2017-04-14T10:11:44.339Z,9.19
2017-04-14T10:12:43.081Z,8.84
2017-04-14T10:13:42.076Z,7.23
2017-04-14T10:14:40.370Z,7.74
2017-04-14T10:15:38.996Z,7.39
2017-04-14T10:16:37.324Z,7.06
2017-04-14T10:17:35.629Z,6.34
2017-04-14T10:18:33.945Z,6.39
2017-04-14T10:19:32.226Z,7.11
2017-04-14T10:20:30.445Z,7.97
2017-04-14T10:21:28.906Z,8.86
2017-04-14T10:22:27.330Z,8.74
2017-04-14T10:23:25.652Z,8.84
2017-04-14T10:24:24.069Z,8.29
2017-04-14T10:25:23.112Z,8.90
2017-04-14T10:26:21.545Z,8.61
2017-04-14T10:27:19.898Z,9.03
2017-04-14T10:28:18.378Z,8.29
2017-04-14T10:29:17.330Z,7.23
2017-04-14T10:30:15.586Z,7.27
2017-04-14T10:31:14.861Z,7.79
2017-04-14T10:32:13.687Z,7.20
2017-04-14T10:33:12.354Z,9.21
2017-04-14T10:34:11.654Z,9.01
2017-04-14T10:35:10.742Z,8.93
2017-04-14T10:36:09.811Z,8.26
2017-04-14T10:37:08.322Z,8.16
2017-04-14T10:38:06.606Z,8.63
2017-04-14T10:39:05.153Z,6.27
2017-04-14T10:40:03.503Z,8.37
2017-04-14T10:41:02.548Z,7.41
2017-04-14T10:42:00.852Z,7.64
2017-04-14T10:42:59.208Z,7.99
2017-04-14T10:43:57.612Z,5.73
2017-04-14T10:44:56.065Z,6.26
2017-04-14T10:45:55.111Z,5.80
2017-04-14T10:46:53.572Z,5.70
2017-04-14T10:47:52.512Z,4.46
2017-04-14T10:48:50.898Z,5.43
2017-04-14T10:49:49.911Z,5.16
2017-04-14T10:50:48.394Z,6.56
2017-04-14T10:51:46.651Z,5.97
2017-04-14T10:52:45.086Z,6.54
2017-04-14T10:53:43.360Z,8.11
2017-04-14T10:54:41.652Z,5.17
2017-04-14T10:55:40.004Z,4.99
2017-04-14T10:56:38.388Z,3.79
2017-04-14T10:57:36.727Z,5.44
2017-04-14T10:58:35.123Z,7.46
2017-04-14T10:59:33.545Z,8.60
2017-04-14T11:00:32.685Z,9.37
2017-04-14T11:01:31.057Z,8.50
2017-04-14T11:02:29.546Z,8.47
2017-04-14T11:03:28.426Z,8.66
2017-04-14T11:04:26.761Z,8.09
2017-04-14T11:05:25.161Z,8.06
2017-04-14T11:06:24.200Z,6.97
2017-04-14T11:07:22.623Z,6.97
2017-04-14T11:08:20.889Z,6.71
2017-04-14T11:09:19.203Z,6.03
2017-04-14T11:10:17.566Z,5.60
2017-04-14T11:11:16.164Z,4.79
2017-04-14T11:12:15.354Z,4.76
2017-04-14T11:13:15.484Z,4.63
2017-04-14T11:14:15.760Z,4.31
2017-04-14T11:15:14.343Z,4.01
2017-04-14T11:16:13.832Z,4.03
2017-04-14T11:17:12.251Z,4.23
2017-04-14T11:18:11.446Z,5.46
2017-04-14T11:19:10.715Z,6.39
2017-04-14T11:20:09.824Z,6.36
2017-04-14T11:21:08.470Z,5.24
2017-04-14T11:22:07.513Z,6.36
2017-04-14T11:23:05.952Z,4.07
2017-04-14T11:24:04.373Z,5.46
2017-04-14T11:25:02.780Z,4.19
2017-04-14T11:26:13.118Z,4.10
2017-04-14T11:27:15.179Z,5.54
2017-04-14T11:28:23.648Z,5.47
2017-04-14T11:29:21.962Z,5.53
2017-04-14T11:30:20.273Z,6.01
2017-04-14T11:31:19.042Z,6.19
2017-04-14T11:32:20.734Z,6.34
2017-04-14T11:33:21.080Z,5.06
2017-04-14T11:34:21.026Z,5.86
2017-04-14T11:35:21.034Z,5.97
2017-04-14T11:36:21.223Z,5.04
2017-04-14T11:37:20.161Z,5.51
2017-04-14T11:38:18.502Z,6.51
2017-04-14T11:39:17.506Z,5.31
2017-04-14T11:40:16.002Z,5.44
2017-04-14T11:41:15.231Z,5.03
2017-04-14T11:42:14.305Z,5.14
2017-04-14T11:43:12.678Z,5.47
2017-04-14T11:44:10.983Z,3.63
2017-04-14T11:45:10.268Z,4.41
2017-04-14T11:46:09.502Z,5.07
2017-04-14T11:47:09.105Z,5.21
2017-04-14T11:48:08.831Z,4.67
2017-04-14T11:49:07.187Z,5.24
2017-04-14T11:50:06.482Z,6.17
2017-04-14T11:51:05.163Z,5.30
2017-04-14T11:52:03.459Z,4.70
2017-04-14T11:53:01.762Z,5.09
2017-04-14T11:54:00.874Z,4.70
2017-04-14T11:54:59.503Z,4.61
2017-04-14T11:55:58.698Z,4.93
2017-04-14T11:56:56.974Z,4.31
2017-04-14T11:57:56.156Z,3.59
2017-04-14T11:58:54.937Z,4.11
2017-04-14T11:59:53.973Z,4.16
2017-04-14T12:00:52.326Z,4.36
2017-04-14T12:01:50.719Z,5.51
2017-04-14T12:02:49.184Z,4.97
2017-04-14T12:03:47.704Z,4.71
2017-04-14T12:04:46.016Z,4.06
2017-04-14T12:05:45.980Z,5.16
2017-04-14T12:06:45.645Z,4.84
2017-04-14T12:07:44.050Z,4.30
2017-04-14T12:08:42.408Z,5.13
2017-04-14T12:09:40.759Z,4.71
2017-04-14T12:10:39.660Z,5.31
2017-04-14T12:11:37.947Z,4.90
2017-04-14T12:12:36.946Z,5.14
2017-04-14T12:13:35.281Z,3.64
2017-04-14T12:14:33.583Z,4.40
2017-04-14T12:15:31.959Z,5.11
2017-04-14T12:16:30.199Z,4.63
2017-04-14T12:17:29.882Z,3.36
2017-04-14T12:18:30.030Z,4.64
2017-04-14T12:19:34.392Z,5.66
2017-04-14T12:20:33.498Z,4.73
2017-04-14T12:21:39.348Z,4.53
2017-04-14T12:22:38.119Z,4.30
2017-04-14T12:23:36.544Z,4.26
2017-04-14T12:24:34.980Z,4.01
2017-04-14T12:25:33.591Z,3.90
2017-04-14T12:26:31.960Z,4.69
2017-04-14T12:27:30.515Z,4.54
2017-04-14T12:28:28.852Z,4.79
2017-04-14T12:29:27.493Z,4.24
2017-04-14T12:30:25.825Z,4.50
2017-04-14T12:31:24.128Z,4.67
2017-04-14T12:32:22.375Z,3.87
2017-04-14T12:33:20.682Z,3.84
2017-04-14T12:34:19.900Z,4.40
2017-04-14T12:35:18.391Z,4.41
2017-04-14T12:36:18.544Z,4.53
2017-04-14T12:37:16.839Z,3.74
2017-04-14T12:38:16.089Z,3.60
2017-04-14T12:39:14.372Z,3.86
2017-04-14T12:40:12.683Z,3.56
2017-04-14T12:41:11.000Z,3.17
2017-04-14T12:42:09.532Z,3.66
2017-04-14T12:43:08.466Z,3.90
2017-04-14T12:44:06.709Z,4.07
2017-04-14T12:45:04.982Z,4.54
2017-04-14T12:46:03.367Z,4.94
2017-04-14T12:47:01.807Z,5.06
2017-04-14T12:48:00.032Z,5.03
2017-04-14T12:48:58.266Z,3.96
2017-04-14T12:49:56.676Z,6.40
2017-04-14T12:50:54.990Z,5.40
2017-04-14T12:51:53.247Z,4.40